Time,TemperatureF,DewpointF,PressureIn,WindDirection,WindDirectionDegrees,WindSpeedMPH,WindSpeedGustMPH,Humidity,HourlyPrecipIn,Conditions,Clouds,dailyrainin,SoftwareType,DateUTC
2013-08-01 00:00:00,65.8,65.5,29.98,NW,315,0.0,0.0,99,0.00,,,0.00,meteohub,2013-08-01 04:00:00,
2013-08-01 00:01:00,65.8,65.5,29.98,NW,315,0.0,0.0,99,0.00,,,0.00,meteohub,2013-08-01 04:01:00,
2013-08-01 00:02:00,65.8,65.5,29.98,NW,315,0.0,0.0,99,0.00,,,0.00,meteohub,2013-08-01 04:02:00,
2013-08-01 00:07:00,65.7,65.3,29.98,NW,315,0.0,0.0,99,0.00,,,0.00,meteohub,2013-08-01 04:07:00,
2013-08-01 00:12:00,65.5,65.1,29.98,NW,315,0.0,0.0,99,0.00,,,0.00,meteohub,2013-08-01 04:12:00,
2013-08-01 00:17:00,65.5,65.1,29.97,NW,315,0.0,0.0,99,0.00,,,0.00,meteohub,2013-08-01 04:17:00,
2013-08-01 00:22:00,65.3,64.9,29.97,NW,315,0.0,0.0,99,0.00,,,0.00,meteohub,2013-08-01 04:22:00,
2013-08-01 00:27:00,65.1,64.8,29.97,NW,315,0.0,0.0,99,0.00,,,0.00,meteohub,2013-08-01 04:27:00,
2013-08-01 00:32:00,64.9,64.6,29.97,NW,315,0.0,0.0,99,0.00,,,0.00,meteohub,2013-08-01 04:32:00,
2013-08-01 00:37:00,64.8,64.4,29.97,NW,315,0.0,0.0,99,0.00,,,0.00,meteohub,2013-08-01 04:37:00,
2013-08-01 00:42:00,64.6,64.2,29.97,NW,315,0.0,0.0,99,0.00,,,0.00,meteohub,2013-08-01 04:42:00,
2013-08-01 00:47:00,64.6,64.2,29.96,NW,315,0.0,0.0,99,0.00,,,0.00,meteohub,2013-08-01 04:47:00,
2013-08-01 00:52:00,64.4,64.0,29.97,South,180,0.0,0.0,99,0.00,,,0.00,meteohub,2013-08-01 04:52:00,
2013-08-01 00:57:00,64.2,63.9,29.96,South,180,0.0,0.0,99,0.00,,,0.00,meteohub,2013-08-01 04:57:00,
2013-08-01 01:02:00,64.2,63.9,29.96,South,180,0.0,0.0,99,0.00,,,0.00,meteohub,2013-08-01 05:02:00,
2013-08-01 01:07:00,64.0,63.7,29.96,South,180,0.0,0.0,99,0.00,,,0.00,meteohub,2013-08-01 05:07:00,
2013-08-01 01:12:00,64.0,63.7,29.96,South,180,0.0,0.0,99,0.00,,,0.00,meteohub,2013-08-01 05:12:00,
2013-08-01 01:17:00,63.7,63.3,29.96,South,180,0.0,0.0,99,0.00,,,0.00,meteohub,2013-08-01 05:17:00,
2013-08-01 01:22:00,63.7,63.3,29.97,South,180,0.0,0.0,99,0.00,,,0.00,meteohub,2013-08-01 05:22:00,
2013-08-01 01:27:00,63.5,63.1,29.95,South,180,0.0,0.0,99,0.00,,,0.00,meteohub,2013-08-01 05:27:00,
2013-08-01 01:32:00,63.5,63.1,29.96,South,180,0.0,0.0,99,0.00,,,0.00,meteohub,2013-08-01 05:32:00,
2013-08-01 01:37:00,63.3,63.0,29.96,South,180,0.0,0.0,99,0.00,,,0.00,meteohub,2013-08-01 05:37:00,
2013-08-01 01:42:00,63.3,63.0,29.96,South,180,0.0,0.0,99,0.00,,,0.00,meteohub,2013-08-01 05:42:00,
2013-08-01 01:47:00,63.1,62.8,29.96,South,180,0.0,0.0,99,0.00,,,0.00,meteohub,2013-08-01 05:47:00,
2013-08-01 01:52:00,63.0,62.6,29.95,South,180,0.0,0.0,99,0.00,,,0.00,meteohub,2013-08-01 05:52:00,
2013-08-01 01:57:00,63.0,62.6,29.95,South,180,0.0,0.0,99,0.00,,,0.00,meteohub,2013-08-01 05:57:00,
2013-08-01 02:02:00,62.8,62.4,29.95,South,180,0.0,0.0,99,0.00,,,0.00,meteohub,2013-08-01 06:02:00,
2013-08-01 02:07:00,62.6,62.2,29.95,South,180,0.0,0.0,99,0.00,,,0.00,meteohub,2013-08-01 06:07:00,
2013-08-01 02:12:00,62.6,62.2,29.95,South,180,0.0,0.0,99,0.00,,,0.00,meteohub,2013-08-01 06:12:00,
2013-08-01 02:17:00,62.6,62.2,29.95,South,180,0.0,0.0,99,0.00,,,0.00,meteohub,2013-08-01 06:17:00,
2013-08-01 02:22:00,62.4,62.1,29.95,South,180,0.0,0.0,99,0.00,,,0.00,meteohub,2013-08-01 06:22:00,
2013-08-01 02:28:00,62.4,62.1,29.94,SE,135,0.0,0.0,99,0.00,,,0.00,meteohub,2013-08-01 06:28:00,
2013-08-01 02:33:00,62.2,61.9,29.94,SE,135,0.0,0.0,99,0.00,,,0.00,meteohub,2013-08-01 06:33:00,
2013-08-01 02:38:00,62.2,61.9,29.94,SE,135,0.0,0.0,99,0.00,,,0.00,meteohub,2013-08-01 06:38:00,
2013-08-01 02:43:00,62.2,61.9,29.94,SE,135,0.0,0.0,99,0.00,,,0.00,meteohub,2013-08-01 06:43:00,
2013-08-01 02:48:00,62.1,61.7,29.94,SE,135,0.0,0.0,99,0.00,,,0.00,meteohub,2013-08-01 06:48:00,
2013-08-01 02:53:00,62.1,61.7,29.94,SE,135,0.0,0.0,99,0.00,,,0.00,meteohub,2013-08-01 06:53:00,
2013-08-01 02:58:00,62.1,61.7,29.93,SE,135,0.0,0.0,99,0.00,,,0.00,meteohub,2013-08-01 06:58:00,
2013-08-01 03:03:00,61.9,61.5,29.93,SE,135,0.0,0.0,99,0.00,,,0.00,meteohub,2013-08-01 07:03:00,
2013-08-01 03:08:00,61.9,61.5,29.93,SE,135,0.0,0.0,99,0.00,,,0.00,meteohub,2013-08-01 07:08:00,
2013-08-01 03:13:00,61.9,61.5,29.93,SE,135,0.0,0.0,99,0.00,,,0.00,meteohub,2013-08-01 07:13:00,
2013-08-01 03:18:00,61.9,61.5,29.93,SE,135,0.0,0.0,99,0.00,,,0.00,meteohub,2013-08-01 07:18:00,
2013-08-01 03:23:00,61.9,61.5,29.93,SE,135,0.0,0.0,99,0.00,,,0.00,meteohub,2013-08-01 07:23:00,
2013-08-01 03:28:00,61.9,61.5,29.92,East,90,0.0,0.0,99,0.00,,,0.00,meteohub,2013-08-01 07:28:00,
2013-08-01 03:33:00,61.9,61.5,29.92,East,90,0.0,0.0,99,0.00,,,0.00,meteohub,2013-08-01 07:33:00,
2013-08-01 03:38:00,61.9,61.5,29.92,East,90,0.0,0.0,99,0.00,,,0.00,meteohub,2013-08-01 07:38:00,
2013-08-01 03:43:00,61.7,61.3,29.92,East,90,0.0,0.0,99,0.00,,,0.00,meteohub,2013-08-01 07:43:00,
2013-08-01 03:48:00,61.9,61.5,29.92,SW,225,0.0,0.0,99,0.00,,,0.00,meteohub,2013-08-01 07:48:00,
2013-08-01 03:53:00,61.7,61.3,29.92,SW,225,0.0,0.0,99,0.00,,,0.00,meteohub,2013-08-01 07:53:00,
2013-08-01 03:58:00,61.7,61.3,29.91,SW,225,0.0,0.0,99,0.00,,,0.00,meteohub,2013-08-01 07:58:00,
2013-08-01 04:03:00,61.7,61.3,29.91,SW,225,0.0,0.0,99,0.00,,,0.00,meteohub,2013-08-01 08:03:00,
2013-08-01 04:08:00,61.9,61.5,29.91,NE,45,0.0,0.0,99,0.00,,,0.00,meteohub,2013-08-01 08:08:00,
2013-08-01 04:13:00,61.9,61.5,29.91,SSE,158,0.0,0.0,99,0.00,,,0.00,meteohub,2013-08-01 08:13:00,
2013-08-01 04:19:00,61.9,61.5,29.91,South,180,0.0,0.0,99,0.00,,,0.00,meteohub,2013-08-01 08:19:00,
2013-08-01 04:24:00,61.9,61.5,29.91,South,180,0.0,0.0,99,0.00,,,0.00,meteohub,2013-08-01 08:24:00,
2013-08-01 04:29:00,61.9,61.5,29.91,East,90,0.0,0.0,99,0.00,,,0.00,meteohub,2013-08-01 08:29:00,
2013-08-01 04:34:00,61.9,61.5,29.91,East,90,0.0,0.0,99,0.00,,,0.00,meteohub,2013-08-01 08:34:00,
2013-08-01 04:39:00,61.9,61.5,29.91,East,90,0.0,0.0,99,0.00,,,0.00,meteohub,2013-08-01 08:39:00,
2013-08-01 04:45:00,61.9,61.5,29.91,East,90,0.0,0.0,99,0.00,,,0.00,meteohub,2013-08-01 08:45:00,
2013-08-01 04:50:00,61.9,61.5,29.91,East,90,0.0,0.0,99,0.00,,,0.00,meteohub,2013-08-01 08:50:00,
2013-08-01 04:55:00,62.1,61.7,29.91,South,180,0.0,0.0,99,0.00,,,0.00,meteohub,2013-08-01 08:55:00,
2013-08-01 05:01:00,62.2,61.9,29.91,South,180,0.0,0.0,99,0.00,,,0.00,meteohub,2013-08-01 09:01:00,
2013-08-01 05:06:00,62.2,61.9,29.91,South,180,0.0,0.0,99,0.00,,,0.00,meteohub,2013-08-01 09:06:00,
2013-08-01 05:12:00,62.2,61.9,29.91,South,180,0.0,0.0,99,0.00,,,0.00,meteohub,2013-08-01 09:12:00,
2013-08-01 05:17:00,62.2,61.9,29.91,South,180,0.0,0.0,99,0.00,,,0.00,meteohub,2013-08-01 09:17:00,
2013-08-01 05:22:00,62.2,61.9,29.91,South,180,0.0,0.0,99,0.00,,,0.00,meteohub,2013-08-01 09:22:00,
2013-08-01 05:27:00,62.4,62.1,29.91,South,180,0.0,0.0,99,0.00,,,0.00,meteohub,2013-08-01 09:27:00,
2013-08-01 05:32:00,62.4,62.1,29.91,South,180,0.0,0.0,99,0.00,,,0.00,meteohub,2013-08-01 09:32:00,
2013-08-01 05:37:00,62.4,62.1,29.91,South,180,0.0,0.0,99,0.00,,,0.00,meteohub,2013-08-01 09:37:00,
2013-08-01 05:42:00,62.4,62.1,29.91,West,270,0.0,0.0,99,0.00,,,0.00,meteohub,2013-08-01 09:42:00,
2013-08-01 05:47:00,62.4,62.1,29.91,West,270,0.0,0.0,99,0.00,,,0.00,meteohub,2013-08-01 09:47:00,
2013-08-01 05:53:00,62.4,62.1,29.91,West,270,0.0,0.0,99,0.00,,,0.00,meteohub,2013-08-01 09:53:00,
2013-08-01 05:58:00,62.4,62.1,29.91,West,270,0.0,0.0,99,0.00,,,0.00,meteohub,2013-08-01 09:58:00,
2013-08-01 06:04:00,62.4,62.1,29.91,SE,135,0.0,0.0,99,0.00,,,0.00,meteohub,2013-08-01 10:04:00,
2013-08-01 06:09:00,62.6,62.2,29.91,SE,135,0.0,0.0,99,0.00,,,0.00,meteohub,2013-08-01 10:09:00,
2013-08-01 06:14:00,62.6,62.2,29.92,South,180,2.0,0.0,99,0.00,,,0.00,meteohub,2013-08-01 10:14:00,
2013-08-01 06:20:00,62.8,62.4,29.91,South,180,0.0,2.0,99,0.00,,,0.00,meteohub,2013-08-01 10:20:00,
2013-08-01 06:25:00,63.0,62.6,29.91,South,180,0.0,2.0,99,0.00,,,0.00,meteohub,2013-08-01 10:25:00,
2013-08-01 06:30:00,63.0,62.6,29.91,South,180,0.0,2.0,99,0.00,,,0.00,meteohub,2013-08-01 10:30:00,
2013-08-01 06:35:00,63.1,62.8,29.91,South,180,0.0,0.0,99,0.00,,,0.00,meteohub,2013-08-01 10:35:00,
2013-08-01 06:40:00,63.3,63.0,29.91,South,180,0.0,0.0,99,0.00,,,0.00,meteohub,2013-08-01 10:40:00,
2013-08-01 06:46:00,63.3,63.0,29.91,South,180,0.0,0.0,99,0.00,,,0.00,meteohub,2013-08-01 10:46:00,
2013-08-01 06:51:00,63.5,63.1,29.91,South,180,0.0,0.0,99,0.00,,,0.00,meteohub,2013-08-01 10:51:00,
2013-08-01 06:56:00,63.7,63.3,29.91,East,90,0.0,0.0,99,0.00,,,0.00,meteohub,2013-08-01 10:56:00,
2013-08-01 07:02:00,64.0,63.7,29.91,East,90,0.0,0.0,99,0.00,,,0.00,meteohub,2013-08-01 11:02:00,
2013-08-01 07:07:00,64.2,63.9,29.91,East,90,0.0,0.0,99,0.00,,,0.00,meteohub,2013-08-01 11:07:00,
2013-08-01 07:12:00,64.4,64.0,29.91,East,90,0.0,0.0,99,0.00,,,0.00,meteohub,2013-08-01 11:12:00,
2013-08-01 07:17:00,64.8,64.4,29.91,East,90,0.0,0.0,99,0.00,,,0.00,meteohub,2013-08-01 11:17:00,
2013-08-01 07:22:00,64.9,64.6,29.91,East,90,0.0,0.0,99,0.00,,,0.00,meteohub,2013-08-01 11:22:00,
2013-08-01 07:27:00,65.3,64.9,29.91,East,90,0.0,0.0,99,0.00,,,0.00,meteohub,2013-08-01 11:27:00,
2013-08-01 07:32:00,65.3,64.9,29.91,East,90,0.0,0.0,99,0.00,,,0.00,meteohub,2013-08-01 11:32:00,
2013-08-01 07:37:00,65.5,65.1,29.91,South,180,0.0,0.0,99,0.00,,,0.00,meteohub,2013-08-01 11:37:00,
2013-08-01 07:42:00,65.7,65.3,29.91,South,180,0.0,1.0,99,0.00,,,0.00,meteohub,2013-08-01 11:42:00,
2013-08-01 07:48:00,66.2,65.8,29.91,South,180,0.0,1.0,99,0.00,,,0.00,meteohub,2013-08-01 11:48:00,
2013-08-01 07:53:00,66.9,66.6,29.91,South,180,0.0,1.0,99,0.00,,,0.00,meteohub,2013-08-01 11:53:00,
2013-08-01 07:58:00,67.6,67.3,29.91,South,180,0.0,0.0,99,0.00,,,0.00,meteohub,2013-08-01 11:58:00,
2013-08-01 08:03:00,68.2,67.8,29.91,South,180,0.0,0.0,99,0.00,,,0.00,meteohub,2013-08-01 12:03:00,
2013-08-01 08:08:00,68.5,68.2,29.91,South,180,0.0,1.0,99,0.00,,,0.00,meteohub,2013-08-01 12:08:00,
2013-08-01 08:13:00,68.9,68.5,29.91,South,180,0.0,2.0,99,0.00,,,0.00,meteohub,2013-08-01 12:13:00,
2013-08-01 08:18:00,69.6,69.3,29.91,SE,135,0.0,2.0,99,0.00,,,0.00,meteohub,2013-08-01 12:18:00,
2013-08-01 08:24:00,70.3,70.0,29.91,NW,315,1.0,2.0,99,0.00,,,0.00,meteohub,2013-08-01 12:24:00,
2013-08-01 08:29:00,70.5,70.2,29.91,East,90,0.0,2.0,99,0.00,,,0.00,meteohub,2013-08-01 12:29:00,
2013-08-01 08:34:00,70.5,70.2,29.91,South,180,1.0,2.0,99,0.00,,,0.00,meteohub,2013-08-01 12:34:00,
2013-08-01 08:39:00,70.9,70.5,29.91,SE,135,0.0,2.0,99,0.00,,,0.00,meteohub,2013-08-01 12:39:00,
2013-08-01 08:44:00,71.4,71.1,29.90,East,90,1.0,2.0,99,0.00,,,0.00,meteohub,2013-08-01 12:44:00,
2013-08-01 08:49:00,71.6,71.2,29.90,South,180,0.0,2.0,99,0.00,,,0.00,meteohub,2013-08-01 12:49:00,
2013-08-01 08:54:00,71.8,71.4,29.90,SE,135,1.0,2.0,99,0.00,,,0.00,meteohub,2013-08-01 12:54:00,
2013-08-01 09:00:00,71.8,71.4,29.90,SE,135,1.0,2.0,99,0.00,,,0.00,meteohub,2013-08-01 13:00:00,
2013-08-01 09:05:00,72.3,72.0,29.90,SE,135,0.0,2.0,99,0.00,,,0.00,meteohub,2013-08-01 13:05:00,
2013-08-01 09:10:00,72.9,72.5,29.89,SE,135,1.0,2.0,99,0.00,,,0.00,meteohub,2013-08-01 13:10:00,
2013-08-01 09:15:00,73.2,72.9,29.89,NW,315,1.0,2.0,99,0.00,,,0.00,meteohub,2013-08-01 13:15:00,
2013-08-01 09:20:00,73.4,73.0,29.89,West,270,2.0,2.0,99,0.00,,,0.00,meteohub,2013-08-01 13:20:00,
2013-08-01 09:25:00,73.9,73.6,29.88,SE,135,0.0,2.0,99,0.00,,,0.00,meteohub,2013-08-01 13:25:00,
2013-08-01 09:31:00,75.7,75.4,29.89,South,180,0.0,2.0,99,0.00,,,0.00,meteohub,2013-08-01 13:31:00,
2013-08-01 09:36:00,78.3,77.9,29.88,SE,135,2.0,4.0,99,0.00,,,0.00,meteohub,2013-08-01 13:36:00,
2013-08-01 09:41:00,79.2,78.3,29.88,SE,135,2.0,4.0,97,0.00,,,0.00,meteohub,2013-08-01 13:41:00,
2013-08-01 09:47:00,78.8,77.5,29.88,East,90,1.0,4.0,96,0.00,,,0.00,meteohub,2013-08-01 13:47:00,
2013-08-01 09:53:00,77.5,76.3,29.88,SW,225,2.0,4.0,96,0.00,,,0.00,meteohub,2013-08-01 13:53:00,
2013-08-01 09:58:00,77.4,76.5,29.88,SE,135,2.0,2.0,97,0.00,,,0.00,meteohub,2013-08-01 13:58:00,
2013-08-01 10:03:00,77.4,76.5,29.88,NE,45,2.0,2.0,97,0.00,,,0.00,meteohub,2013-08-01 14:03:00,
2013-08-01 10:08:00,78.3,77.4,29.88,SW,225,2.0,2.0,97,0.00,,,0.00,meteohub,2013-08-01 14:08:00,
2013-08-01 10:13:00,79.5,76.6,29.88,NW,315,2.0,3.0,91,0.00,,,0.00,meteohub,2013-08-01 14:13:00,
2013-08-01 10:20:00,79.3,76.8,29.88,South,180,2.0,4.0,92,0.00,,,0.00,meteohub,2013-08-01 14:20:00,
2013-08-01 10:25:00,79.5,76.3,29.88,North,0,4.0,4.0,90,0.00,,,0.00,meteohub,2013-08-01 14:25:00,
2013-08-01 10:30:00,79.0,75.7,29.88,East,90,4.0,4.0,90,0.00,,,0.00,meteohub,2013-08-01 14:30:00,
2013-08-01 10:36:00,78.6,76.5,29.88,South,180,2.0,5.0,93,0.00,,,0.00,meteohub,2013-08-01 14:36:00,
2013-08-01 10:42:00,77.7,75.9,29.88,SE,135,2.0,5.0,94,0.00,,,0.00,meteohub,2013-08-01 14:42:00,
2013-08-01 10:47:00,77.4,76.5,29.88,East,90,2.0,4.0,97,0.00,,,0.00,meteohub,2013-08-01 14:47:00,
2013-08-01 10:52:00,77.0,76.1,29.88,WSW,248,2.0,4.0,97,0.00,,,0.00,meteohub,2013-08-01 14:52:00,
2013-08-01 10:59:00,76.8,76.5,29.88,SE,135,1.0,4.0,99,0.00,,,0.00,meteohub,2013-08-01 14:59:00,
2013-08-01 11:05:00,77.0,76.6,29.87,North,0,2.0,4.0,99,0.00,,,0.00,meteohub,2013-08-01 15:05:00,
2013-08-01 11:10:00,76.6,76.3,29.87,SE,135,2.0,3.0,99,0.00,,,0.00,meteohub,2013-08-01 15:10:00,
2013-08-01 11:15:00,76.1,75.7,29.87,SE,135,1.0,3.0,99,0.00,,,0.00,meteohub,2013-08-01 15:15:00,
2013-08-01 11:21:00,75.7,75.4,29.87,South,180,1.0,3.0,99,0.00,,,0.00,meteohub,2013-08-01 15:21:00,
2013-08-01 11:26:00,75.7,75.4,29.87,South,180,1.0,4.0,99,0.00,,,0.00,meteohub,2013-08-01 15:26:00,
2013-08-01 11:32:00,75.7,75.4,29.87,NE,45,2.0,2.0,99,0.00,,,0.00,meteohub,2013-08-01 15:32:00,
2013-08-01 11:37:00,75.6,75.2,29.87,South,180,2.0,5.0,99,0.00,,,0.00,meteohub,2013-08-01 15:37:00,
2013-08-01 11:42:00,75.0,74.7,29.87,SE,135,5.0,5.0,99,0.00,,,0.00,meteohub,2013-08-01 15:42:00,
2013-08-01 11:48:00,74.5,74.1,29.87,SW,225,2.0,5.0,99,0.00,,,0.00,meteohub,2013-08-01 15:48:00,
2013-08-01 11:54:00,74.3,73.9,29.87,West,270,1.0,5.0,99,0.00,,,0.00,meteohub,2013-08-01 15:54:00,
2013-08-01 11:59:00,73.8,73.4,29.87,SSE,158,2.0,5.0,99,0.00,,,0.00,meteohub,2013-08-01 15:59:00,
2013-08-01 12:05:00,73.2,72.9,29.87,South,180,1.0,5.0,99,0.00,,,0.00,meteohub,2013-08-01 16:05:00,
2013-08-01 12:10:00,72.9,72.5,29.87,South,180,0.0,5.0,99,0.00,,,0.00,meteohub,2013-08-01 16:10:00,
2013-08-01 12:15:00,72.5,72.1,29.87,SW,225,0.0,3.0,99,0.00,,,0.00,meteohub,2013-08-01 16:15:00,
2013-08-01 12:22:00,72.1,71.8,29.86,South,180,0.0,3.0,99,0.01,,,0.01,meteohub,2013-08-01 16:22:00,
2013-08-01 12:27:00,71.6,71.2,29.87,South,180,0.0,3.0,99,0.02,,,0.02,meteohub,2013-08-01 16:27:00,
2013-08-01 12:32:00,71.2,70.9,29.86,South,180,0.0,3.0,99,0.02,,,0.02,meteohub,2013-08-01 16:32:00,
2013-08-01 12:38:00,71.1,70.7,29.87,SE,135,1.0,1.0,99,0.02,,,0.02,meteohub,2013-08-01 16:38:00,
2013-08-01 12:43:00,70.5,70.2,29.86,South,180,2.0,2.0,99,0.02,,,0.02,meteohub,2013-08-01 16:43:00,
2013-08-01 12:48:00,70.3,70.0,29.86,South,180,0.0,2.0,99,0.04,,,0.04,meteohub,2013-08-01 16:48:00,
2013-08-01 12:53:00,70.5,70.2,29.86,North,0,2.0,2.0,99,0.04,,,0.04,meteohub,2013-08-01 16:53:00,
2013-08-01 12:58:00,70.3,70.0,29.86,SE,135,0.0,2.0,99,0.05,,,0.05,meteohub,2013-08-01 16:58:00,
2013-08-01 13:03:00,70.3,70.0,29.86,South,180,1.0,2.0,99,0.06,,,0.06,meteohub,2013-08-01 17:03:00,
2013-08-01 13:08:00,70.9,70.5,29.85,South,180,0.0,2.0,99,0.06,,,0.06,meteohub,2013-08-01 17:08:00,
2013-08-01 13:15:00,70.3,70.0,29.86,SE,135,2.0,2.0,99,0.06,,,0.06,meteohub,2013-08-01 17:15:00,
2013-08-01 13:21:00,70.2,69.8,29.86,SE,135,2.0,2.0,99,0.06,,,0.06,meteohub,2013-08-01 17:21:00,
2013-08-01 13:26:00,69.6,69.3,29.86,SE,135,2.0,2.0,99,0.04,,,0.06,meteohub,2013-08-01 17:26:00,
2013-08-01 13:31:00,69.4,69.1,29.85,SE,135,2.0,2.0,99,0.04,,,0.07,meteohub,2013-08-01 17:31:00,
2013-08-01 13:37:00,69.3,68.9,29.85,South,180,1.0,2.0,99,0.05,,,0.07,meteohub,2013-08-01 17:37:00,
2013-08-01 13:42:00,69.3,68.9,29.85,South,180,0.0,2.0,99,0.04,,,0.07,meteohub,2013-08-01 17:42:00,
2013-08-01 13:47:00,69.3,68.9,29.84,South,180,0.0,2.0,99,0.04,,,0.07,meteohub,2013-08-01 17:47:00,
2013-08-01 13:52:00,69.3,68.9,29.85,South,180,1.0,2.0,99,0.04,,,0.07,meteohub,2013-08-01 17:52:00,
2013-08-01 13:58:00,69.1,68.7,29.85,South,180,1.0,2.0,99,0.02,,,0.07,meteohub,2013-08-01 17:58:00,
2013-08-01 14:03:00,69.1,68.7,29.84,SE,135,2.0,2.0,99,0.01,,,0.07,meteohub,2013-08-01 18:03:00,
2013-08-01 14:08:00,68.9,68.5,29.85,SE,135,2.0,2.0,99,0.01,,,0.07,meteohub,2013-08-01 18:08:00,
2013-08-01 14:13:00,68.9,68.5,29.85,SE,135,1.0,2.0,99,0.01,,,0.07,meteohub,2013-08-01 18:13:00,
2013-08-01 14:18:00,68.7,68.4,29.85,SE,135,2.0,3.0,99,0.04,,,0.09,meteohub,2013-08-01 18:18:00,
2013-08-01 14:23:00,68.5,68.2,29.84,SW,225,2.0,3.0,99,0.06,,,0.12,meteohub,2013-08-01 18:23:00,
2013-08-01 14:29:00,68.4,68.0,29.84,SE,135,1.0,2.0,99,0.08,,,0.14,meteohub,2013-08-01 18:29:00,
2013-08-01 14:35:00,68.2,67.8,29.84,South,180,1.0,2.0,99,0.08,,,0.15,meteohub,2013-08-01 18:35:00,
2013-08-01 14:40:00,68.2,67.8,29.85,East,90,2.0,2.0,99,0.08,,,0.15,meteohub,2013-08-01 18:40:00,
2013-08-01 14:46:00,68.2,67.8,29.85,East,90,0.0,2.0,99,0.09,,,0.17,meteohub,2013-08-01 18:46:00,
2013-08-01 14:51:00,68.0,67.6,29.85,East,90,1.0,2.0,99,0.09,,,0.17,meteohub,2013-08-01 18:51:00,
2013-08-01 14:56:00,68.0,67.6,29.85,East,90,2.0,4.0,99,0.11,,,0.18,meteohub,2013-08-01 18:56:00,
2013-08-01 15:02:00,68.0,67.6,29.85,SE,135,2.0,4.0,99,0.11,,,0.18,meteohub,2013-08-01 19:02:00,
2013-08-01 15:07:00,68.0,67.6,29.85,SE,135,2.0,4.0,99,0.11,,,0.18,meteohub,2013-08-01 19:07:00,
2013-08-01 15:12:00,68.0,67.6,29.85,SE,135,2.0,2.0,99,0.11,,,0.18,meteohub,2013-08-01 19:12:00,
2013-08-01 15:17:00,68.2,67.8,29.85,SE,135,2.0,3.0,99,0.07,,,0.18,meteohub,2013-08-01 19:17:00,
2013-08-01 15:22:00,68.2,67.8,29.85,South,180,2.0,3.0,99,0.05,,,0.18,meteohub,2013-08-01 19:22:00,
2013-08-01 15:27:00,68.4,68.0,29.85,SE,135,2.0,3.0,99,0.04,,,0.18,meteohub,2013-08-01 19:27:00,
2013-08-01 15:32:00,68.2,67.8,29.85,SE,135,1.0,3.0,99,0.04,,,0.18,meteohub,2013-08-01 19:32:00,
2013-08-01 15:37:00,68.4,68.0,29.84,SE,135,1.0,2.0,99,0.02,,,0.18,meteohub,2013-08-01 19:37:00,
2013-08-01 15:43:00,68.2,67.8,29.84,SE,135,2.0,3.0,99,0.02,,,0.18,meteohub,2013-08-01 19:43:00,
2013-08-01 15:48:00,68.2,67.8,29.84,South,180,2.0,4.0,99,0.01,,,0.18,meteohub,2013-08-01 19:48:00,
2013-08-01 15:53:00,68.0,67.6,29.84,South,180,1.0,4.0,99,0.00,,,0.18,meteohub,2013-08-01 19:53:00,
2013-08-01 15:58:00,68.2,67.8,29.83,NE,45,1.0,4.0,99,0.00,,,0.18,meteohub,2013-08-01 19:58:00,
2013-08-01 16:03:00,68.0,67.6,29.83,North,0,1.0,2.0,99,0.00,,,0.18,meteohub,2013-08-01 20:03:00,
2013-08-01 16:08:00,68.2,67.8,29.83,NW,315,2.0,2.0,99,0.00,,,0.18,meteohub,2013-08-01 20:08:00,
2013-08-01 16:13:00,68.2,67.8,29.83,South,180,1.0,2.0,99,0.00,,,0.18,meteohub,2013-08-01 20:13:00,
2013-08-01 16:19:00,68.2,67.8,29.83,South,180,1.0,2.0,99,0.00,,,0.18,meteohub,2013-08-01 20:19:00,
2013-08-01 16:24:00,68.2,67.8,29.83,SE,135,2.0,2.0,99,0.00,,,0.18,meteohub,2013-08-01 20:24:00,
2013-08-01 16:29:00,68.2,67.8,29.83,SW,225,2.0,2.0,99,0.00,,,0.18,meteohub,2013-08-01 20:29:00,
2013-08-01 16:35:00,68.0,67.6,29.82,South,180,0.0,2.0,99,0.00,,,0.18,meteohub,2013-08-01 20:35:00,
2013-08-01 16:40:00,68.0,67.6,29.83,SW,225,0.0,2.0,99,0.00,,,0.18,meteohub,2013-08-01 20:40:00,
2013-08-01 16:41:00,68.0,67.6,29.82,West,270,0.0,2.0,99,0.00,,,0.18,meteohub,2013-08-01 20:41:00,
2013-08-01 16:46:00,68.0,67.6,29.83,South,180,0.0,2.0,99,0.00,,,0.18,meteohub,2013-08-01 20:46:00,
2013-08-01 16:52:00,68.0,67.6,29.82,SE,135,0.0,2.0,99,0.00,,,0.18,meteohub,2013-08-01 20:52:00,
2013-08-01 16:57:00,68.0,67.6,29.82,South,180,2.0,2.0,99,0.00,,,0.18,meteohub,2013-08-01 20:57:00,
2013-08-01 17:02:00,68.2,67.8,29.82,NW,315,2.0,2.0,99,0.00,,,0.18,meteohub,2013-08-01 21:02:00,
2013-08-01 17:07:00,68.2,67.8,29.82,SE,135,2.0,2.0,99,0.00,,,0.18,meteohub,2013-08-01 21:07:00,
2013-08-01 17:12:00,68.0,67.6,29.82,South,180,0.0,2.0,99,0.00,,,0.18,meteohub,2013-08-01 21:12:00,
2013-08-01 17:17:00,68.0,67.6,29.82,SE,135,0.0,2.0,99,0.00,,,0.18,meteohub,2013-08-01 21:17:00,
2013-08-01 17:23:00,67.8,67.5,29.81,South,180,2.0,2.0,99,0.00,,,0.18,meteohub,2013-08-01 21:23:00,
2013-08-01 17:28:00,68.0,67.6,29.81,SSE,158,2.0,2.0,99,0.00,,,0.18,meteohub,2013-08-01 21:28:00,
2013-08-01 17:33:00,68.0,67.6,29.81,South,180,0.0,2.0,99,0.00,,,0.18,meteohub,2013-08-01 21:33:00,
2013-08-01 17:38:00,68.2,67.8,29.81,SE,135,1.0,2.0,99,0.00,,,0.18,meteohub,2013-08-01 21:38:00,
2013-08-01 17:43:00,68.2,67.8,29.81,South,180,0.0,2.0,99,0.00,,,0.18,meteohub,2013-08-01 21:43:00,
2013-08-01 17:49:00,68.0,67.6,29.81,NW,315,2.0,2.0,99,0.00,,,0.18,meteohub,2013-08-01 21:49:00,
2013-08-01 17:54:00,68.0,67.6,29.81,South,180,0.0,2.0,99,0.00,,,0.18,meteohub,2013-08-01 21:54:00,
2013-08-01 17:59:00,68.0,67.6,29.81,SW,225,0.0,2.0,99,0.00,,,0.18,meteohub,2013-08-01 21:59:00,
2013-08-01 18:04:00,68.0,67.6,29.81,West,270,2.0,2.0,99,0.00,,,0.18,meteohub,2013-08-01 22:04:00,
2013-08-01 18:09:00,67.6,67.3,29.81,West,270,0.0,2.0,99,0.00,,,0.18,meteohub,2013-08-01 22:09:00,
2013-08-01 18:14:00,67.8,67.5,29.81,NW,315,0.0,2.0,99,0.00,,,0.18,meteohub,2013-08-01 22:14:00,
2013-08-01 18:19:00,67.6,67.3,29.81,SE,135,1.0,2.0,99,0.00,,,0.18,meteohub,2013-08-01 22:19:00,
2013-08-01 18:24:00,67.6,67.3,29.80,East,90,3.0,3.0,99,0.00,,,0.18,meteohub,2013-08-01 22:24:00,
2013-08-01 18:29:00,67.5,67.1,29.80,South,180,2.0,2.0,99,0.00,,,0.18,meteohub,2013-08-01 22:29:00,
2013-08-01 18:34:00,67.5,67.1,29.81,West,270,2.0,3.0,99,0.00,,,0.18,meteohub,2013-08-01 22:34:00,
2013-08-01 18:39:00,67.5,67.1,29.81,NW,315,1.0,3.0,99,0.00,,,0.18,meteohub,2013-08-01 22:39:00,
2013-08-01 18:44:00,67.5,67.1,29.81,NW,315,2.0,2.0,99,0.00,,,0.18,meteohub,2013-08-01 22:44:00,
2013-08-01 18:49:00,67.5,67.1,29.81,SW,225,0.0,2.0,99,0.00,,,0.18,meteohub,2013-08-01 22:49:00,
2013-08-01 18:54:00,67.3,66.9,29.81,West,270,2.0,2.0,99,0.00,,,0.18,meteohub,2013-08-01 22:54:00,
2013-08-01 18:59:00,67.3,66.9,29.81,NW,315,0.0,2.0,99,0.00,,,0.18,meteohub,2013-08-01 22:59:00,
2013-08-01 19:05:00,67.1,66.7,29.81,NW,315,1.0,2.0,99,0.01,,,0.19,meteohub,2013-08-01 23:05:00,
2013-08-01 19:10:00,67.1,66.7,29.81,SSW,203,1.0,2.0,99,0.01,,,0.19,meteohub,2013-08-01 23:10:00,
2013-08-01 19:15:00,67.1,66.7,29.81,SW,225,0.0,1.0,99,0.02,,,0.19,meteohub,2013-08-01 23:15:00,
2013-08-01 19:20:00,67.1,66.7,29.81,SW,225,1.0,1.0,99,0.02,,,0.20,meteohub,2013-08-01 23:20:00,
2013-08-01 19:25:00,67.1,66.7,29.81,South,180,0.0,2.0,99,0.06,,,0.24,meteohub,2013-08-01 23:25:00,
2013-08-01 19:31:00,67.1,66.7,29.81,SW,225,0.0,2.0,99,0.06,,,0.24,meteohub,2013-08-01 23:31:00,
2013-08-01 19:36:00,67.1,66.7,29.81,SW,225,2.0,2.0,99,0.07,,,0.25,meteohub,2013-08-01 23:36:00,
2013-08-01 19:42:00,67.1,66.7,29.81,West,270,1.0,2.0,99,0.08,,,0.26,meteohub,2013-08-01 23:42:00,
2013-08-01 19:47:00,66.9,66.6,29.80,NW,315,3.0,4.0,99,0.08,,,0.26,meteohub,2013-08-01 23:47:00,
2013-08-01 19:52:00,66.9,66.6,29.81,South,180,1.0,4.0,99,0.09,,,0.27,meteohub,2013-08-01 23:52:00,
2013-08-01 19:57:00,66.9,66.6,29.81,South,180,2.0,4.0,99,0.08,,,0.27,meteohub,2013-08-01 23:57:00,
2013-08-01 20:02:00,66.9,66.6,29.81,NW,315,2.0,3.0,99,0.08,,,0.27,meteohub,2013-08-02 00:02:00,
2013-08-01 20:07:00,66.9,66.6,29.81,NW,315,2.0,2.0,99,0.09,,,0.28,meteohub,2013-08-02 00:07:00,
2013-08-01 20:12:00,66.9,66.6,29.81,NE,45,3.0,3.0,99,0.09,,,0.28,meteohub,2013-08-02 00:12:00,
2013-08-01 20:17:00,66.7,66.4,29.81,NE,45,1.0,3.0,99,0.08,,,0.28,meteohub,2013-08-02 00:17:00,
2013-08-01 20:24:00,66.6,66.2,29.81,SW,225,2.0,3.0,99,0.08,,,0.30,meteohub,2013-08-02 00:24:00,
2013-08-01 20:29:00,66.7,66.4,29.81,NE,45,1.0,3.0,99,0.06,,,0.30,meteohub,2013-08-02 00:29:00,
2013-08-01 20:34:00,66.6,66.2,29.81,North,0,2.0,2.0,99,0.06,,,0.30,meteohub,2013-08-02 00:34:00,
2013-08-01 20:39:00,66.6,66.2,29.80,WSW,248,0.0,2.0,99,0.04,,,0.30,meteohub,2013-08-02 00:39:00,
2013-08-01 20:44:00,66.4,66.0,29.81,North,0,1.0,2.0,99,0.04,,,0.30,meteohub,2013-08-02 00:44:00,
2013-08-01 20:49:00,66.6,66.2,29.81,North,0,2.0,2.0,99,0.04,,,0.30,meteohub,2013-08-02 00:49:00,
2013-08-01 20:54:00,66.4,66.0,29.81,West,270,0.0,2.0,99,0.04,,,0.31,meteohub,2013-08-02 00:54:00,
2013-08-01 20:59:00,66.4,66.0,29.81,NW,315,1.0,2.0,99,0.04,,,0.31,meteohub,2013-08-02 00:59:00,
2013-08-01 21:05:00,66.4,66.0,29.80,East,90,1.0,2.0,99,0.06,,,0.33,meteohub,2013-08-02 01:05:00,
2013-08-01 21:10:00,66.4,66.0,29.81,NW,315,0.0,1.0,99,0.05,,,0.33,meteohub,2013-08-02 01:10:00,
2013-08-01 21:15:00,66.4,66.0,29.80,NE,45,0.0,1.0,99,0.06,,,0.38,meteohub,2013-08-02 01:15:00,
2013-08-01 21:20:00,66.4,66.0,29.80,South,180,1.0,1.0,99,0.08,,,0.38,meteohub,2013-08-02 01:20:00,
2013-08-01 21:25:00,66.4,66.0,29.80,South,180,0.0,2.0,99,0.08,,,0.38,meteohub,2013-08-02 01:25:00,
2013-08-01 21:31:00,66.4,66.0,29.81,SW,225,2.0,2.0,99,0.09,,,0.39,meteohub,2013-08-02 01:31:00,
2013-08-01 21:36:00,66.6,66.2,29.80,East,90,0.0,2.0,99,0.11,,,0.40,meteohub,2013-08-02 01:36:00,
2013-08-01 21:41:00,66.6,66.2,29.80,SE,135,2.0,2.0,99,0.11,,,0.40,meteohub,2013-08-02 01:41:00,
2013-08-01 21:46:00,66.6,66.2,29.79,SW,225,0.0,2.0,99,0.13,,,0.43,meteohub,2013-08-02 01:46:00,
2013-08-01 21:52:00,66.7,66.4,29.79,South,180,0.0,2.0,99,0.13,,,0.44,meteohub,2013-08-02 01:52:00,
2013-08-01 21:57:00,66.7,66.4,29.79,NW,315,1.0,2.0,99,0.14,,,0.45,meteohub,2013-08-02 01:57:00,
2013-08-01 22:02:00,66.7,66.4,29.78,SE,135,1.0,2.0,99,0.12,,,0.45,meteohub,2013-08-02 02:02:00,
2013-08-01 22:07:00,66.9,66.6,29.78,West,270,0.0,2.0,99,0.11,,,0.45,meteohub,2013-08-02 02:07:00,
2013-08-01 22:12:00,67.1,66.7,29.78,SW,225,0.0,2.0,99,0.09,,,0.45,meteohub,2013-08-02 02:12:00,
2013-08-01 22:17:00,67.1,66.7,29.78,SW,225,1.0,2.0,99,0.07,,,0.45,meteohub,2013-08-02 02:17:00,
2013-08-01 22:22:00,67.1,66.7,29.78,SW,225,0.0,2.0,99,0.07,,,0.45,meteohub,2013-08-02 02:22:00,
2013-08-01 22:27:00,67.1,66.7,29.78,West,270,1.0,1.0,99,0.06,,,0.45,meteohub,2013-08-02 02:27:00,
2013-08-01 22:32:00,67.3,66.9,29.78,SW,225,1.0,1.0,99,0.05,,,0.45,meteohub,2013-08-02 02:32:00,
2013-08-01 22:37:00,67.3,66.9,29.78,NW,315,0.0,1.0,99,0.05,,,0.45,meteohub,2013-08-02 02:37:00,
2013-08-01 22:42:00,67.3,66.9,29.78,NW,315,1.0,1.0,99,0.05,,,0.46,meteohub,2013-08-02 02:42:00,
2013-08-01 22:48:00,67.3,66.9,29.77,NE,45,2.0,2.0,99,0.04,,,0.46,meteohub,2013-08-02 02:48:00,
2013-08-01 22:53:00,67.3,66.9,29.77,NE,45,2.0,2.0,99,0.02,,,0.46,meteohub,2013-08-02 02:53:00,
2013-08-01 22:58:00,67.5,67.1,29.77,SW,225,0.0,2.0,99,0.01,,,0.46,meteohub,2013-08-02 02:58:00,
2013-08-01 23:03:00,67.5,67.1,29.77,SW,225,0.0,2.0,99,0.01,,,0.46,meteohub,2013-08-02 03:03:00,
2013-08-01 23:08:00,67.5,67.1,29.76,NW,315,2.0,2.0,99,0.01,,,0.46,meteohub,2013-08-02 03:08:00,
2013-08-01 23:13:00,67.5,67.1,29.77,SW,225,0.0,2.0,99,0.01,,,0.46,meteohub,2013-08-02 03:13:00,
2013-08-01 23:18:00,67.5,67.1,29.76,South,180,1.0,2.0,99,0.01,,,0.46,meteohub,2013-08-02 03:18:00,
2013-08-01 23:24:00,67.5,67.1,29.77,West,270,1.0,2.0,99,0.01,,,0.46,meteohub,2013-08-02 03:24:00,
2013-08-01 23:29:00,67.5,67.1,29.77,West,270,0.0,2.0,99,0.02,,,0.47,meteohub,2013-08-02 03:29:00,
2013-08-01 23:34:00,67.5,67.1,29.76,South,180,0.0,2.0,99,0.02,,,0.47,meteohub,2013-08-02 03:34:00,
2013-08-01 23:39:00,67.6,67.3,29.76,South,180,0.0,2.0,99,0.02,,,0.47,meteohub,2013-08-02 03:39:00,
2013-08-01 23:44:00,67.5,67.1,29.75,West,270,2.0,2.0,99,0.01,,,0.47,meteohub,2013-08-02 03:44:00,
2013-08-01 23:49:00,67.6,67.3,29.76,West,270,0.0,2.0,99,0.01,,,0.47,meteohub,2013-08-02 03:49:00,
2013-08-01 23:54:00,67.6,67.3,29.76,East,90,0.0,2.0,99,0.01,,,0.47,meteohub,2013-08-02 03:54:00,
2013-08-01 23:59:00,67.6,67.3,29.76,East,90,0.0,2.0,99,0.02,,,0.48,meteohub,2013-08-02 03:59:00,